createdAt,value
2018-06-29T00:00:07.966Z,99118.26
2018-06-29T00:02:36.209Z,99122.70
2018-06-29T00:05:04.714Z,99126.45
2018-06-29T00:07:32.946Z,99126.84
2018-06-29T00:10:01.227Z,99119.06
2018-06-29T00:12:29.506Z,99115.19
2018-06-29T00:14:57.781Z,99116.51
2018-06-29T00:17:26.029Z,99115.38
2018-06-29T00:19:54.318Z,99104.78
2018-06-29T00:22:22.617Z,99100.17
2018-06-29T00:24:50.890Z,99101.81
2018-06-29T00:27:19.118Z,99103.45
2018-06-29T00:29:47.672Z,99103.97
2018-06-29T00:32:15.911Z,99105.12
2018-06-29T00:34:44.211Z,99098.00
2018-06-29T00:37:12.619Z,99103.40
2018-06-29T00:39:40.890Z,99103.49
2018-06-29T00:42:09.186Z,99100.69
2018-06-29T00:44:37.480Z,99096.16
2018-06-29T00:47:05.807Z,99092.68
2018-06-29T00:49:34.119Z,99086.63
2018-06-29T00:52:02.367Z,99082.48
2018-06-29T00:54:30.815Z,99082.56
2018-06-29T00:56:59.053Z,99087.88
2018-06-29T00:59:27.335Z,99082.70
2018-06-29T01:01:55.635Z,99084.41
2018-06-29T01:04:23.930Z,99085.07
2018-06-29T01:06:52.158Z,99080.88
2018-06-29T01:09:20.454Z,99087.30
2018-06-29T01:11:48.686Z,99093.36
2018-06-29T01:14:16.986Z,99081.86
2018-06-29T01:16:45.302Z,99081.48
2018-06-29T01:19:13.587Z,99082.98
2018-06-29T01:21:41.829Z,99078.59
2018-06-29T01:24:10.102Z,99070.77
2018-06-29T01:26:38.374Z,99071.80
2018-06-29T01:29:06.663Z,99072.12
2018-06-29T01:31:35.195Z,99072.08
2018-06-29T01:34:03.451Z,99074.04
2018-06-29T01:36:31.760Z,99065.60
2018-06-29T01:39:00.082Z,99073.72
2018-06-29T01:41:28.386Z,99066.62
2018-06-29T01:43:56.627Z,99074.82
2018-06-29T01:46:24.904Z,99071.33
2018-06-29T01:48:53.147Z,99070.20
2018-06-29T01:51:21.435Z,99060.65
2018-06-29T01:53:49.682Z,99063.56
2018-06-29T01:56:17.972Z,99059.44
2018-06-29T01:58:46.231Z,99059.44
2018-06-29T02:01:14.506Z,99065.58
2018-06-29T02:03:42.738Z,99065.53
2018-06-29T02:06:11.034Z,99069.67
2018-06-29T02:08:39.303Z,99071.89
2018-06-29T02:11:07.820Z,99072.25
2018-06-29T02:13:36.062Z,99073.57
2018-06-29T02:16:04.347Z,99070.84
2018-06-29T02:18:32.784Z,99062.05
2018-06-29T02:21:01.034Z,99069.09
2018-06-29T02:23:29.308Z,99075.89
2018-06-29T02:25:57.647Z,99070.48
2018-06-29T02:28:25.946Z,99075.51
2018-06-29T02:30:54.371Z,99080.11
2018-06-29T02:33:22.549Z,99079.67
2018-06-29T02:35:50.894Z,99083.65
2018-06-29T02:38:19.137Z,99080.80
2018-06-29T02:40:47.434Z,99080.36
2018-06-29T02:43:15.686Z,99085.06
2018-06-29T02:45:44.082Z,99087.05
2018-06-29T02:48:12.336Z,99082.16
2018-06-29T02:50:40.654Z,99074.66
2018-06-29T02:53:08.884Z,99076.97
2018-06-29T02:55:37.171Z,99077.05
2018-06-29T02:58:05.455Z,99080.81
2018-06-29T03:00:33.763Z,99084.83
2018-06-29T03:03:02.007Z,99078.48
2018-06-29T03:05:30.298Z,99084.28
2018-06-29T03:07:58.607Z,99079.72
2018-06-29T03:10:26.875Z,99082.22
2018-06-29T03:12:55.158Z,99080.57
2018-06-29T03:15:23.395Z,99080.06
2018-06-29T03:17:51.703Z,99088.48
2018-06-29T03:20:20.373Z,99088.36
2018-06-29T03:22:48.681Z,99082.94
2018-06-29T03:25:17.027Z,99073.66
2018-06-29T03:27:45.241Z,99073.52
2018-06-29T03:30:13.525Z,99075.37
2018-06-29T03:32:41.861Z,99079.93
2018-06-29T03:35:10.115Z,99072.86
2018-06-29T03:37:38.398Z,99076.03
2018-06-29T03:40:06.657Z,99069.81
2018-06-29T03:42:34.966Z,99070.13
2018-06-29T03:45:03.235Z,99060.05
2018-06-29T03:47:31.523Z,99061.19
2018-06-29T03:49:59.773Z,99055.16
2018-06-29T03:52:28.077Z,99056.64
2018-06-29T03:54:56.354Z,99052.30
2018-06-29T03:57:24.665Z,99053.43
2018-06-29T03:59:52.921Z,99042.82
2018-06-29T04:02:21.434Z,99044.36
2018-06-29T04:04:49.687Z,99039.97
2018-06-29T04:07:17.999Z,99042.75
2018-06-29T04:09:46.285Z,99036.38
2018-06-29T04:12:14.573Z,99036.03
2018-06-29T04:14:42.817Z,99034.81
2018-06-29T04:17:11.154Z,99028.58
2018-06-29T04:19:39.414Z,99033.81
2018-06-29T04:22:07.950Z,99032.89
2018-06-29T04:24:36.221Z,99038.30
2018-06-29T04:27:04.510Z,99038.45
2018-06-29T04:29:32.789Z,99031.16
2018-06-29T04:32:01.087Z,99030.44
2018-06-29T04:34:29.327Z,99027.27
2018-06-29T04:36:57.838Z,99027.80
2018-06-29T04:39:26.123Z,99021.20
2018-06-29T04:41:54.380Z,99013.05
2018-06-29T04:44:22.655Z,99016.92
2018-06-29T04:46:50.910Z,99017.14
2018-06-29T04:49:19.216Z,99020.57
2018-06-29T04:51:47.437Z,99022.17
2018-06-29T04:54:15.738Z,99018.86
2018-06-29T04:56:44.056Z,99024.83
2018-06-29T04:59:12.397Z,99022.23
2018-06-29T05:01:40.692Z,99023.94
2018-06-29T05:04:09.029Z,99025.61
2018-06-29T05:06:38.315Z,99022.23
2018-06-29T05:09:07.511Z,99034.10
2018-06-29T05:11:36.336Z,99032.05
2018-06-29T05:14:04.650Z,99038.19
2018-06-29T05:16:32.913Z,99037.72
2018-06-29T05:19:01.262Z,99038.12
2018-06-29T05:21:29.498Z,99032.61
2018-06-29T05:23:57.794Z,99033.53
2018-06-29T05:26:26.036Z,99036.89
2018-06-29T05:28:54.622Z,99038.84
2018-06-29T05:31:22.950Z,99038.00
2018-06-29T05:33:51.255Z,99040.95
2018-06-29T05:36:19.514Z,99051.06
2018-06-29T05:38:47.803Z,99046.54
2018-06-29T05:41:16.115Z,99059.88
2018-06-29T05:43:44.434Z,99053.01
2018-06-29T05:46:12.696Z,99055.53
2018-06-29T05:48:41.123Z,99042.73
2018-06-29T05:51:09.366Z,99047.30
2018-06-29T05:53:37.633Z,99049.05
2018-06-29T05:56:05.926Z,99046.09
2018-06-29T05:58:34.275Z,99044.31
2018-06-29T06:01:02.575Z,99045.92
2018-06-29T06:03:30.924Z,99041.36
2018-06-29T06:05:59.192Z,99043.25
2018-06-29T06:08:27.488Z,99049.45
2018-06-29T06:10:55.724Z,99051.70
2018-06-29T06:13:24.309Z,99048.87
2018-06-29T06:15:52.535Z,99055.06
2018-06-29T06:18:20.810Z,99060.33
2018-06-29T06:20:49.034Z,99063.73
2018-06-29T06:23:18.893Z,99062.16
2018-06-29T06:25:47.519Z,99069.03
2018-06-29T06:28:15.994Z,99066.06
2018-06-29T06:30:44.315Z,99068.19
2018-06-29T06:33:12.749Z,99071.61
2018-06-29T06:35:40.981Z,99070.03
2018-06-29T06:38:09.222Z,99069.33
2018-06-29T06:40:37.514Z,99071.77
2018-06-29T06:43:06.106Z,99072.84
2018-06-29T06:45:34.423Z,99064.42
2018-06-29T06:48:02.769Z,99071.35
2018-06-29T06:50:31.116Z,99079.32
2018-06-29T06:52:59.370Z,99073.73
2018-06-29T06:55:27.671Z,99058.88
2018-06-29T06:57:55.919Z,99067.85
2018-06-29T07:00:24.199Z,99059.53
2018-06-29T07:02:52.499Z,99057.73
2018-06-29T07:05:21.334Z,99050.60
2018-06-29T07:07:49.577Z,99056.63
2018-06-29T07:10:17.862Z,99053.43
2018-06-29T07:12:46.128Z,99053.27
2018-06-29T07:15:14.410Z,99045.64
2018-06-29T07:17:42.704Z,99047.30
2018-06-29T07:20:11.104Z,99043.61
2018-06-29T07:22:39.366Z,99039.45
2018-06-29T07:25:07.674Z,99036.38
2018-06-29T07:27:36.001Z,99034.70
2018-06-29T07:30:05.675Z,99041.41
2018-06-29T07:32:34.011Z,99042.55
2018-06-29T07:35:02.335Z,99041.33
2018-06-29T07:37:30.706Z,99042.41
2018-06-29T07:39:58.978Z,99044.20
2018-06-29T07:42:27.276Z,99045.94
2018-06-29T07:44:55.546Z,99050.53
2018-06-29T07:47:23.773Z,99044.27
2018-06-29T07:49:52.068Z,99040.17
2018-06-29T07:52:20.315Z,99037.67
2018-06-29T07:54:48.666Z,99044.25
2018-06-29T07:57:16.919Z,99052.34
2018-06-29T07:59:45.191Z,99044.61
2018-06-29T08:02:13.421Z,99044.92
2018-06-29T08:04:41.707Z,99044.04
2018-06-29T08:07:10.222Z,99040.42
2018-06-29T08:09:38.503Z,99045.97
2018-06-29T08:12:06.740Z,99042.41
2018-06-29T08:14:34.990Z,99034.19
2018-06-29T08:17:03.363Z,99034.94
2018-06-29T08:19:31.742Z,99028.97
2018-06-29T08:22:00.170Z,99022.70
2018-06-29T08:24:29.686Z,99019.66
2018-06-29T08:26:57.991Z,99017.27
2018-06-29T08:29:26.335Z,99010.86
2018-06-29T08:31:54.703Z,99010.37
2018-06-29T08:34:22.955Z,99005.64
2018-06-29T08:36:51.282Z,99010.14
2018-06-29T08:39:19.532Z,99004.27
2018-06-29T08:41:47.855Z,98994.44
2018-06-29T08:44:16.263Z,99002.14
2018-06-29T08:46:44.725Z,98992.64
2018-06-29T08:49:12.974Z,98989.02
2018-06-29T08:51:41.311Z,98988.06
2018-06-29T08:54:09.668Z,98991.88
2018-06-29T08:56:38.199Z,98993.99
2018-06-29T08:59:06.698Z,98989.46
2018-06-29T09:01:35.050Z,98994.91
2018-06-29T09:04:03.326Z,98985.00
2018-06-29T09:06:32.438Z,98994.03
2018-06-29T09:09:00.976Z,98983.08
2018-06-29T09:11:29.309Z,98979.64
2018-06-29T09:13:57.589Z,98975.25
2018-06-29T09:16:25.943Z,98973.76
2018-06-29T09:18:54.187Z,98971.49
2018-06-29T09:21:22.471Z,98969.31
2018-06-29T09:23:50.783Z,98971.89
2018-06-29T09:26:19.146Z,98967.11
2018-06-29T09:28:47.502Z,98967.09
2018-06-29T09:31:15.803Z,98966.58
2018-06-29T09:33:44.056Z,98961.41
2018-06-29T09:36:12.331Z,98956.62
2018-06-29T09:38:40.590Z,98953.50
2018-06-29T09:41:09.202Z,98958.03
2018-06-29T09:43:37.482Z,98956.64
2018-06-29T09:46:05.879Z,98945.44
2018-06-29T09:48:34.115Z,98949.30
2018-06-29T09:51:02.414Z,98943.41
2018-06-29T09:53:30.742Z,98948.66
2018-06-29T09:55:59.030Z,98947.59
2018-06-29T09:58:27.891Z,98948.13
2018-06-29T10:00:56.278Z,98938.53
2018-06-29T10:03:24.854Z,98950.83
2018-06-29T10:05:53.249Z,98949.29
2018-06-29T10:08:21.558Z,98943.55
2018-06-29T10:10:49.878Z,98944.79
2018-06-29T10:13:18.335Z,98947.11
2018-06-29T10:15:46.590Z,98935.30
2018-06-29T10:18:14.898Z,98944.26
2018-06-29T10:20:43.263Z,98941.06
2018-06-29T10:23:11.551Z,98940.04
2018-06-29T10:25:39.809Z,98939.70
2018-06-29T10:28:08.263Z,98934.30
2018-06-29T10:30:36.563Z,98933.63
2018-06-29T10:33:04.859Z,98930.74
2018-06-29T10:35:33.108Z,98926.11
2018-06-29T10:38:01.392Z,98925.64
2018-06-29T10:40:29.674Z,98921.89
2018-06-29T10:42:57.947Z,98922.17
2018-06-29T10:45:26.194Z,98923.70
2018-06-29T10:47:55.534Z,98918.77
2018-06-29T10:50:23.788Z,98919.11
2018-06-29T10:52:52.115Z,98905.02
2018-06-29T10:55:20.353Z,98899.42
2018-06-29T10:57:48.629Z,98897.05
2018-06-29T11:00:16.906Z,98895.64
2018-06-29T11:02:45.178Z,98899.88
2018-06-29T11:05:13.486Z,98894.50
2018-06-29T11:07:41.781Z,98891.86
2018-06-29T11:10:10.046Z,98883.86
2018-06-29T11:12:38.331Z,98886.24
2018-06-29T11:15:06.586Z,98883.28
2018-06-29T11:17:34.890Z,98884.75
2018-06-29T11:20:04.632Z,98878.45
2018-06-29T11:22:33.281Z,98870.78
2018-06-29T11:25:01.542Z,98876.66
2018-06-29T11:27:29.820Z,98876.91
2018-06-29T11:29:58.466Z,98881.25
2018-06-29T11:32:26.744Z,98879.28
2018-06-29T11:34:55.064Z,98870.53
2018-06-29T11:37:24.565Z,98869.53
2018-06-29T11:39:53.170Z,98862.48
2018-06-29T11:42:23.619Z,98876.04
2018-06-29T11:44:52.746Z,98864.20
2018-06-29T11:47:21.778Z,98870.67
2018-06-29T11:49:51.162Z,98867.67
2018-06-29T11:52:21.921Z,98864.54
2018-06-29T11:54:54.083Z,98864.50
2018-06-29T11:57:26.018Z,98856.14
2018-06-29T11:59:56.925Z,98852.06
2018-06-29T12:02:25.987Z,98848.16
2018-06-29T12:04:59.024Z,98849.30
2018-06-29T12:07:27.414Z,98847.53
2018-06-29T12:09:56.173Z,98847.48
2018-06-29T12:12:24.513Z,98842.29
2018-06-29T12:14:52.973Z,98830.83
2018-06-29T12:17:21.222Z,98837.50
2018-06-29T12:19:49.486Z,98839.38
2018-06-29T12:22:17.718Z,98836.34
2018-06-29T12:24:46.074Z,98832.78
2018-06-29T12:27:14.345Z,98837.92
2018-06-29T12:29:42.667Z,98825.37
2018-06-29T12:32:10.910Z,98820.94
2018-06-29T12:34:39.198Z,98825.77
2018-06-29T12:37:07.459Z,98818.33
2018-06-29T12:39:35.748Z,98811.48
2018-06-29T12:42:04.042Z,98804.77
2018-06-29T12:44:32.330Z,98802.25
2018-06-29T12:47:00.621Z,98801.17
2018-06-29T12:49:28.898Z,98810.13
2018-06-29T12:51:57.403Z,98801.30
2018-06-29T12:54:25.708Z,98809.64
2018-06-29T12:56:54.170Z,98797.64
2018-06-29T12:59:22.461Z,98791.78
2018-06-29T13:01:50.706Z,98792.94
2018-06-29T13:04:19.060Z,98793.81
2018-06-29T13:06:47.370Z,98790.50
2018-06-29T13:09:15.731Z,98780.06
2018-06-29T13:11:43.994Z,98784.81
2018-06-29T13:14:12.499Z,98783.09
2018-06-29T13:16:40.730Z,98780.87
2018-06-29T13:19:09.194Z,98782.64
2018-06-29T13:21:37.622Z,98777.04
2018-06-29T13:24:06.160Z,98777.15
2018-06-29T13:26:34.452Z,98780.73
2018-06-29T13:29:02.783Z,98777.38
2018-06-29T13:31:31.094Z,98771.15
2018-06-29T13:33:59.476Z,98774.59
2018-06-29T13:36:27.827Z,98768.19
2018-06-29T13:38:56.151Z,98761.45
2018-06-29T13:41:24.426Z,98764.67
2018-06-29T13:43:52.746Z,98769.22
2018-06-29T13:46:21.102Z,98764.92
2018-06-29T13:48:49.406Z,98755.11
2018-06-29T13:51:17.639Z,98744.70
2018-06-29T13:53:45.926Z,98746.59
2018-06-29T13:56:14.759Z,98745.59
2018-06-29T13:58:43.034Z,98742.95
2018-06-29T14:01:11.374Z,98749.36
2018-06-29T14:03:39.651Z,98749.69
2018-06-29T14:06:08.258Z,98752.00
2018-06-29T14:08:36.576Z,98744.25
2018-06-29T14:11:04.871Z,98746.91
2018-06-29T14:13:33.115Z,98749.88
2018-06-29T14:16:01.463Z,98735.09
2018-06-29T14:18:29.799Z,98732.20
2018-06-29T14:20:58.927Z,98729.70
2018-06-29T14:23:27.234Z,98732.76
2018-06-29T14:25:55.514Z,98736.60
2018-06-29T14:28:23.754Z,98730.80
2018-06-29T14:30:53.132Z,98720.85
2018-06-29T14:33:21.432Z,98724.89
2018-06-29T14:35:49.979Z,98718.31
2018-06-29T14:38:18.242Z,98718.98
2018-06-29T14:40:46.642Z,98711.64
2018-06-29T14:43:14.886Z,98709.45
2018-06-29T14:45:43.159Z,98712.06
2018-06-29T14:48:11.428Z,98707.80
2018-06-29T14:50:40.026Z,98707.05
2018-06-29T14:53:08.376Z,98707.14
2018-06-29T14:55:36.751Z,98700.25
2018-06-29T14:58:05.058Z,98703.80
2018-06-29T15:00:33.611Z,98703.57
2018-06-29T15:03:02.134Z,98697.86
2018-06-29T15:05:30.383Z,98696.91
2018-06-29T15:07:58.669Z,98698.18
2018-06-29T15:10:26.955Z,98690.96
2018-06-29T15:12:55.199Z,98687.52
2018-06-29T15:15:23.462Z,98698.08
2018-06-29T15:17:51.737Z,98696.59
2018-06-29T15:20:20.015Z,98696.19
2018-06-29T15:22:48.283Z,98687.48
2018-06-29T15:25:16.952Z,98682.73
2018-06-29T15:27:45.127Z,98681.93
2018-06-29T15:30:13.440Z,98686.92
2018-06-29T15:32:41.694Z,98689.56
2018-06-29T15:35:09.975Z,98695.41
2018-06-29T15:37:38.231Z,98683.28
2018-06-29T15:40:06.556Z,98695.66
2018-06-29T15:42:36.812Z,98686.12
2018-06-29T15:45:05.431Z,98694.78
2018-06-29T15:47:33.672Z,98690.56
2018-06-29T15:50:02.025Z,98688.53
2018-06-29T15:52:30.282Z,98693.84
2018-06-29T15:54:58.603Z,98689.16
2018-06-29T15:57:26.883Z,98694.26
2018-06-29T15:59:55.126Z,98693.66
2018-06-29T16:02:23.796Z,98688.03
2018-06-29T16:04:52.394Z,98687.28
2018-06-29T16:07:20.682Z,98687.94
2018-06-29T16:09:48.930Z,98676.07
2018-06-29T16:12:17.236Z,98686.20
2018-06-29T16:14:45.495Z,98677.10
2018-06-29T16:17:13.806Z,98676.58
2018-06-29T16:19:42.098Z,98678.23
2018-06-29T16:22:10.430Z,98680.38
2018-06-29T16:24:38.674Z,98676.11
2018-06-29T16:27:06.972Z,98676.74
2018-06-29T16:29:35.471Z,98668.80
2018-06-29T16:32:03.758Z,98662.07
2018-06-29T16:34:32.111Z,98659.77
2018-06-29T16:37:00.406Z,98669.66
2018-06-29T16:39:28.671Z,98666.69
2018-06-29T16:41:56.954Z,98659.96
2018-06-29T16:44:25.690Z,98669.66
2018-06-29T16:46:54.010Z,98657.77
2018-06-29T16:49:22.282Z,98661.17
2018-06-29T16:51:50.576Z,98659.71
2018-06-29T16:54:18.830Z,98656.23
2018-06-29T16:56:47.291Z,98658.48
2018-06-29T16:59:15.535Z,98660.05
2018-06-29T17:01:43.821Z,98657.19
2018-06-29T17:04:13.805Z,98658.80
2018-06-29T17:06:42.094Z,98656.59
2018-06-29T17:09:10.603Z,98656.13
2018-06-29T17:11:39.111Z,98655.56
2018-06-29T17:14:07.547Z,98652.59
2018-06-29T17:16:36.102Z,98655.47
2018-06-29T17:19:04.571Z,98650.68
2018-06-29T17:21:32.850Z,98658.34
2018-06-29T17:24:01.341Z,98652.37
2018-06-29T17:26:30.003Z,98647.42
2018-06-29T17:28:58.532Z,98651.19
2018-06-29T17:31:26.716Z,98655.31
2018-06-29T17:33:55.005Z,98655.67
2018-06-29T17:36:23.248Z,98658.05
2018-06-29T17:38:51.575Z,98652.54
2018-06-29T17:41:19.965Z,98654.63
2018-06-29T17:43:48.406Z,98653.51
2018-06-29T17:46:16.650Z,98655.57
2018-06-29T17:48:45.928Z,98651.59
2018-06-29T17:51:14.283Z,98652.58
2018-06-29T17:53:42.650Z,98651.56
2018-06-29T17:56:11.026Z,98648.65
2018-06-29T17:58:39.468Z,98650.70
2018-06-29T18:01:08.061Z,98647.09
2018-06-29T18:03:36.535Z,98641.22
2018-06-29T18:06:05.214Z,98643.48
2018-06-29T18:08:33.718Z,98648.66
2018-06-29T18:11:01.982Z,98639.45
2018-06-29T18:16:22.748Z,98644.69
2018-06-29T18:18:51.059Z,98648.88
2018-06-29T18:21:19.364Z,98650.83
2018-06-29T18:23:47.770Z,98653.98
2018-06-29T18:26:16.252Z,98647.79
2018-06-29T18:28:44.552Z,98647.75
2018-06-29T18:31:13.088Z,98649.65
2018-06-29T18:33:41.583Z,98643.64
2018-06-29T18:36:11.280Z,98646.67
2018-06-29T18:38:40.129Z,98648.70
2018-06-29T18:41:08.708Z,98658.08
2018-06-29T18:43:37.405Z,98654.22
2018-06-29T18:46:06.355Z,98652.90
2018-06-29T18:48:34.941Z,98655.62
2018-06-29T18:51:03.693Z,98656.21
2018-06-29T18:53:32.421Z,98655.72
2018-06-29T18:56:00.988Z,98660.05
2018-06-29T18:58:29.586Z,98660.23
2018-06-29T19:00:59.057Z,98662.39
2018-06-29T19:03:27.890Z,98666.41
2018-06-29T19:05:56.730Z,98662.05
2018-06-29T19:08:25.323Z,98663.09
2018-06-29T19:10:53.629Z,98664.09
2018-06-29T19:13:22.021Z,98668.03
2018-06-29T19:15:50.463Z,98667.45
2018-06-29T19:18:18.781Z,98663.23
2018-06-29T19:20:47.143Z,98671.73
2018-06-29T19:23:15.558Z,98669.48
2018-06-29T19:25:44.018Z,98669.58
2018-06-29T19:28:12.873Z,98678.77
2018-06-29T19:30:41.385Z,98672.21
2018-06-29T19:33:09.830Z,98678.94
2018-06-29T19:35:38.209Z,98680.16
2018-06-29T19:38:07.051Z,98682.34
2018-06-29T19:40:36.101Z,98683.17
2018-06-29T19:43:04.949Z,98680.83
2018-06-29T19:45:33.550Z,98684.69
2018-06-29T19:48:02.073Z,98684.46
2018-06-29T19:50:30.859Z,98676.52
2018-06-29T19:52:59.784Z,98680.83
2018-06-29T19:55:29.458Z,98691.34
2018-06-29T19:57:58.018Z,98692.84
2018-06-29T20:00:28.566Z,98696.48
2018-06-29T20:02:57.250Z,98695.94
2018-06-29T20:05:25.634Z,98694.81
2018-06-29T20:07:53.953Z,98694.94
2018-06-29T20:10:22.299Z,98693.72
2018-06-29T20:12:50.607Z,98706.74
2018-06-29T20:15:19.028Z,98699.17
2018-06-29T20:17:47.567Z,98703.70
2018-06-29T20:20:16.192Z,98713.02
2018-06-29T20:22:44.427Z,98707.07
2018-06-29T20:25:12.752Z,98712.45
2018-06-29T20:27:41.014Z,98713.86
2018-06-29T20:30:10.734Z,98717.06
2018-06-29T20:32:39.074Z,98716.09
2018-06-29T20:35:07.367Z,98722.86
2018-06-29T20:37:35.636Z,98729.08
2018-06-29T20:40:04.015Z,98730.63
2018-06-29T20:42:33.014Z,98731.62
2018-06-29T20:45:01.354Z,98740.55
2018-06-29T20:47:29.685Z,98735.33
2018-06-29T20:49:58.171Z,98734.63
2018-06-29T20:52:26.453Z,98738.80
2018-06-29T20:54:54.813Z,98747.23
2018-06-29T20:57:23.219Z,98751.18
2018-06-29T20:59:51.590Z,98752.33
2018-06-29T21:02:19.832Z,98761.62
2018-06-29T21:04:48.189Z,98763.04
2018-06-29T21:07:16.390Z,98765.30
2018-06-29T21:09:44.700Z,98769.28
2018-06-29T21:12:13.085Z,98768.81
2018-06-29T21:14:42.462Z,98768.77
2018-06-29T21:17:10.851Z,98771.17
2018-06-29T21:19:39.118Z,98773.16
2018-06-29T21:22:07.467Z,98778.46
2018-06-29T21:24:35.822Z,98778.55
2018-06-29T21:27:04.198Z,98776.73
2018-06-29T21:29:32.549Z,98774.92
2018-06-29T21:32:00.878Z,98775.15
2018-06-29T21:34:29.204Z,98781.16
2018-06-29T21:36:57.629Z,98783.69
2018-06-29T21:39:25.874Z,98773.75
2018-06-29T21:41:54.187Z,98781.65
2018-06-29T21:44:22.462Z,98773.73
2018-06-29T21:46:50.744Z,98775.12
2018-06-29T21:49:19.043Z,98785.91
2018-06-29T21:51:47.435Z,98784.61
2018-06-29T21:54:15.718Z,98782.13
2018-06-29T21:56:43.999Z,98783.52
2018-06-29T21:59:12.315Z,98786.95
2018-06-29T22:01:40.638Z,98785.11
2018-06-29T22:04:09.047Z,98793.75
2018-06-29T22:06:37.331Z,98792.73
2018-06-29T22:09:07.606Z,98788.78
2018-06-29T22:11:35.932Z,98785.95
2018-06-29T22:14:04.298Z,98791.02
2018-06-29T22:16:32.606Z,98793.92
2018-06-29T22:19:01.518Z,98791.80
2018-06-29T22:21:29.868Z,98800.69
2018-06-29T22:23:58.136Z,98796.34
2018-06-29T22:26:26.423Z,98800.96
2018-06-29T22:28:54.831Z,98801.44
2018-06-29T22:31:23.154Z,98801.48
2018-06-29T22:33:51.547Z,98804.10
2018-06-29T22:36:19.816Z,98806.73
2018-06-29T22:38:48.074Z,98810.39
2018-06-29T22:41:16.531Z,98811.81
2018-06-29T22:43:44.891Z,98812.39
2018-06-29T22:46:13.327Z,98817.99
2018-06-29T22:48:41.583Z,98818.75
2018-06-29T22:51:10.091Z,98822.64
2018-06-29T22:53:38.329Z,98822.94
2018-06-29T22:56:06.614Z,98820.09
2018-06-29T22:58:34.850Z,98821.20
2018-06-29T23:01:03.216Z,98830.44
2018-06-29T23:03:36.624Z,98824.83
2018-06-29T23:06:05.094Z,98827.84
2018-06-29T23:08:33.391Z,98826.23
2018-06-29T23:11:01.675Z,98826.58
2018-06-29T23:13:29.923Z,98833.09
2018-06-29T23:15:58.209Z,98828.05
2018-06-29T23:18:26.602Z,98828.71
2018-06-29T23:20:54.927Z,98833.11
2018-06-29T23:23:23.254Z,98827.19
2018-06-29T23:25:51.550Z,98837.47
2018-06-29T23:28:19.853Z,98835.48
2018-06-29T23:30:48.172Z,98838.00
2018-06-29T23:33:16.490Z,98836.32
2018-06-29T23:35:44.731Z,98838.84
2018-06-29T23:38:13.067Z,98832.52
2018-06-29T23:40:41.304Z,98831.55
2018-06-29T23:43:09.715Z,98836.45
2018-06-29T23:45:37.946Z,98842.32
2018-06-29T23:48:06.246Z,98841.34
2018-06-29T23:50:34.474Z,98843.81
2018-06-29T23:53:02.850Z,98841.91
2018-06-29T23:55:31.114Z,98835.24
2018-06-29T23:57:59.515Z,98846.81
